No data was retrieved for https://query.yahooapis.com/v1/public/yql?q=select+%2A+from+weather.forecast+where+woeid%3D626045&format=xml&u=c


Notice: Undefined index: in /var/www/html/weather28/wsIconUrl.php on line 132

Warning: A non-numeric value encountered in /var/www/html/weather28/wsIconUrl.php on line 140

Warning: A non-numeric value encountered in /var/www/html/weather28/wsIconUrl.php on line 141

Warning: A non-numeric value encountered in /var/www/html/weather28/wsFunctions.php on line 312
- Bienvenue sur la Station Météo " Les Brantus " située au Point du Jour, Saint-Nazaire, 44600 -
Pas de vigilance météorologique particulière.    Il n'y a aucun avertissement

Météo Saint-Nazaire.



Visitez nos sites météorologiques autres:

Template documentation
and downloads

And another site



Rapports METAR proximité


Warning: A non-numeric value encountered in /var/www/html/weather28/metar/metarDisplay.php on line 166

Warning: A non-numeric value encountered in /var/www/html/weather28/metar/metarDisplay.php on line 166

Warning: A non-numeric value encountered in /var/www/html/weather28/metar/metarDisplay.php on line 166
   
LFRZ - Saint-Nazaire, France
Mise à jour: 18-11-2019 05:00
Brouillard, Partiellement nuageux  
Brouillard, Partiellement nuageux  
   Vent: calme
Vent: calme
Température: 2°C
Point de rosée: 2°C
Humidité: 100%
Baromètre: 1014 hPa
Nuageux: Partiellement nuageux
visibilité: 5 km
Détails des nuages: Partiellement nuageux
LFRZ 180400Z AUTO 00000KT 5000 BR NSC 02/02 Q1014 TEMPO 0300 FG VV///
LFPG - Paris, France
Mise à jour: 18-11-2019 05:00
Nuageux  
Nuageux  
   Vent: Ouest 9.3 km/h
Vent: Ouest 9.3 km/h
Température: 4°C
éolien: 2°C
Point de rosée: 1°C
Humidité: 81%
Baromètre: 1011 hPa
Nuageux: Nuageux
visibilité: More than 10 km
Détails des nuages: Peu de nuages 2700 ft,
Nuageux 3100 ft
LFPG 180400Z 27005KT 9999 FEW027 BKN031 04/01 Q1011 NOSIG
LFQQ - Lille, France
Mise à jour: 18-11-2019 05:00
Nuageux  
Nuageux  
   Vent: ONO 11.1 km/h
Vent: ONO 11.1 km/h
Température: 3°C
éolien: 0°C
Point de rosée: 2°C
Humidité: 93%
Baromètre: 1009 hPa
Nuageux: Nuageux
visibilité: 7 km
Détails des nuages: Peu de nuages 2200 ft,
Nuageux 5800 ft,
Nuageux 15000 ft
LFQQ 180400Z AUTO 29006KT 7000 FEW022 BKN058 OVC150 03/02 Q1009 NOSIG
BIRK - Reykjavik, Islande
Mise à jour: 18-11-2019 05:00
Partiellement nuageux  
Partiellement nuageux  
   Vent: Est 31.5 km/h
Vent: Est 31.5 km/h
Température: 1°C
éolien: -6°C
Point de rosée: -7°C
Humidité: 56%
Baromètre: 1010 hPa
Nuageux: Partiellement nuageux
visibilité: More than 10 km
Détails des nuages: Partiellement nuageux 4200 ft
BIRK 180400Z 08017KT 9999 SCT042 01/M07 Q1010
ENGM - Oslo, Norvège
Mise à jour: 18-11-2019 04:50
Nuageux  
Nuageux  
   Vent: NNE 7.4 km/h
Vent: NNE 7.4 km/h
Température: 0°C
éolien: -3°C
Point de rosée: 0°C
Humidité: 100%
Baromètre: 1018 hPa
Nuageux: Nuageux
visibilité: More than 10 km
Détails des nuages: Peu de nuages 700 ft,
Nuageux 900 ft
ENGM 180350Z 03004KT 9999 FEW007 BKN009 00/00 Q1018
EGLL - Londres, Royaume-Uni
Mise à jour: 18-11-2019 04:50
Claires  
Claires  
   Vent: North 13 km/h
Vent: North 13 km/h
Température: 7°C
éolien: 4°C
Point de rosée: 5°C
Humidité: 87%
Baromètre: 1014 hPa
Nuageux: Claires
visibilité: More than 10 km
Détails des nuages: Claires
EGLL 180350Z AUTO 36007KT 9999 NCD 07/05 Q1014
EDDT - Berlin, Allemagne *
Mise à jour: 18-11-2019 04:50
Claires  
Claires  
   Vent: Est 9.3 km/h
Vent: Est 9.3 km/h
Température: 9°C
éolien: 8°C
Point de rosée: 7°C
Humidité: 87%
Baromètre: 1004 hPa
visibilité: More than 10 km
Détails des nuages: Claires
EDDT 180350Z 10005KT CAVOK 09/07 Q1004 NOSIG
UUEE - Moscou, Russie
Mise à jour: 18-11-2019 05:00
Brouillard, Nuageux  
Brouillard, Nuageux  
   Vent: OSO 10.7 km/h
Vent: OSO 10.7 km/h
Température: 3°C
éolien: 0°C
Point de rosée: 3°C
Humidité: 100%
Baromètre: 1028 hPa
Nuageux: Nuageux
visibilité: 2 km
Détails des nuages: Nuageux 100 ft
UUEE 180400Z 25003MPS 220V280 2000 BR OVC001 03/03 Q1028 R24L/150057 R24C/150057 R24R/290051 TEMPO 1000 BR RMK QBB050
LEMD - Madrid, Espagne
Mise à jour: 18-11-2019 05:00
Peu de nuages  
Peu de nuages  
   Vent: varie 3.7 km/h
Vent: varie 3.7 km/h
Température: 2°C
Point de rosée: 2°C
Humidité: 100%
Baromètre: 1011 hPa
Nuageux: Peu de nuages
visibilité: More than 10 km
Détails des nuages: Peu de nuages 6000 ft
LEMD 180400Z VRB02KT 9999 FEW060 02/02 Q1011 NOSIG
LIRF - Rome, Italie
Mise à jour: 18-11-2019 04:50
Peu de nuages  
Peu de nuages  
   Vent: SSO 20.4 km/h
Vent: SSO 20.4 km/h
Température: 14°C
Point de rosée: 9°C
Humidité: 72%
Baromètre: 1012 hPa
Nuageux: Peu de nuages
visibilité: More than 10 km
Détails des nuages: Peu de nuages 3000 ft
LIRF 180350Z 21011KT 9999 FEW030 14/09 Q1012 NOSIG
  

Script développé par  Saratoga-weather.org Adapté pour le modèle par  Weerstation Leuven

Vous trouverez notre info météo Également à:

WeatherCloud

Weather Underground

AWEKAS

Équipement que nous utilisons:

Programme Météo
Meteohub

Meteohub